sensor_id;sensor_type;location;lat;lon;timestamp;P1;durP1;ratioP1;P2;durP2;ratioP2
19617;SDS011;9956;51.006;13.670;2023-02-28T00:01:00;10.65;;;8.63;;
19617;SDS011;9956;51.006;13.670;2023-02-28T00:06:01;17.23;;;12.95;;
19617;SDS011;9956;51.006;13.670;2023-02-28T00:11:04;18.35;;;13.00;;
19617;SDS011;9956;51.006;13.670;2023-02-28T00:16:07;10.38;;;8.25;;
19617;SDS011;9956;51.006;13.670;2023-02-28T00:21:09;9.20;;;7.80;;
19617;SDS011;9956;51.006;13.670;2023-02-28T00:26:10;11.18;;;8.40;;
19617;SDS011;9956;51.006;13.670;2023-02-28T00:31:11;11.73;;;9.38;;
19617;SDS011;9956;51.006;13.670;2023-02-28T00:36:12;11.38;;;8.75;;
19617;SDS011;9956;51.006;13.670;2023-02-28T00:41:12;10.32;;;8.85;;
19617;SDS011;9956;51.006;13.670;2023-02-28T00:46:14;12.52;;;9.52;;
19617;SDS011;9956;51.006;13.670;2023-02-28T00:51:14;10.60;;;8.95;;
19617;SDS011;9956;51.006;13.670;2023-02-28T00:56:15;12.52;;;10.32;;
19617;SDS011;9956;51.006;13.670;2023-02-28T01:01:15;9.55;;;8.30;;
19617;SDS011;9956;51.006;13.670;2023-02-28T01:06:16;12.65;;;10.18;;
19617;SDS011;9956;51.006;13.670;2023-02-28T01:11:17;11.32;;;8.80;;
19617;SDS011;9956;51.006;13.670;2023-02-28T01:16:18;10.05;;;7.50;;
19617;SDS011;9956;51.006;13.670;2023-02-28T01:21:20;10.15;;;8.23;;
19617;SDS011;9956;51.006;13.670;2023-02-28T01:26:23;10.68;;;8.57;;
19617;SDS011;9956;51.006;13.670;2023-02-28T01:31:24;12.75;;;8.70;;
19617;SDS011;9956;51.006;13.670;2023-02-28T01:36:25;12.93;;;9.98;;
19617;SDS011;9956;51.006;13.670;2023-02-28T01:41:26;10.98;;;9.30;;
19617;SDS011;9956;51.006;13.670;2023-02-28T01:46:29;11.75;;;9.13;;
19617;SDS011;9956;51.006;13.670;2023-02-28T01:51:37;15.60;;;10.50;;
19617;SDS011;9956;51.006;13.670;2023-02-28T01:56:56;12.23;;;9.43;;
19617;SDS011;9956;51.006;13.670;2023-02-28T02:02:06;12.18;;;10.07;;
19617;SDS011;9956;51.006;13.670;2023-02-28T02:07:07;13.88;;;10.68;;
19617;SDS011;9956;51.006;13.670;2023-02-28T02:12:16;14.32;;;11.55;;
19617;SDS011;9956;51.006;13.670;2023-02-28T02:17:37;14.82;;;10.55;;
19617;SDS011;9956;51.006;13.670;2023-02-28T02:34:16;15.07;;;10.18;;
19617;SDS011;9956;51.006;13.670;2023-02-28T02:45:02;9.70;;;7.85;;
19617;SDS011;9956;51.006;13.670;2023-02-28T02:50:06;12.25;;;9.45;;
19617;SDS011;9956;51.006;13.670;2023-02-28T02:55:26;13.32;;;9.23;;
19617;SDS011;9956;51.006;13.670;2023-02-28T03:00:32;13.93;;;8.75;;
19617;SDS011;9956;51.006;13.670;2023-02-28T03:05:47;10.57;;;8.32;;
19617;SDS011;9956;51.006;13.670;2023-02-28T03:11:07;11.65;;;8.80;;
19617;SDS011;9956;51.006;13.670;2023-02-28T03:21:36;10.93;;;8.82;;
19617;SDS011;9956;51.006;13.670;2023-02-28T03:27:04;15.23;;;9.30;;
19617;SDS011;9956;51.006;13.670;2023-02-28T03:32:22;13.00;;;9.00;;
19617;SDS011;9956;51.006;13.670;2023-02-28T03:37:26;11.70;;;8.50;;
19617;SDS011;9956;51.006;13.670;2023-02-28T03:42:29;12.05;;;9.57;;
19617;SDS011;9956;51.006;13.670;2023-02-28T03:47:32;13.25;;;9.48;;
19617;SDS011;9956;51.006;13.670;2023-02-28T03:52:42;10.93;;;8.25;;
19617;SDS011;9956;51.006;13.670;2023-02-28T03:57:57;11.95;;;9.18;;
19617;SDS011;9956;51.006;13.670;2023-02-28T04:03:02;13.43;;;9.50;;
19617;SDS011;9956;51.006;13.670;2023-02-28T04:08:03;13.60;;;10.13;;
19617;SDS011;9956;51.006;13.670;2023-02-28T04:13:06;13.70;;;10.05;;
19617;SDS011;9956;51.006;13.670;2023-02-28T04:18:07;14.75;;;9.55;;
19617;SDS011;9956;51.006;13.670;2023-02-28T04:23:08;13.52;;;9.45;;
19617;SDS011;9956;51.006;13.670;2023-02-28T04:28:08;12.98;;;10.40;;
19617;SDS011;9956;51.006;13.670;2023-02-28T04:33:09;12.27;;;8.75;;
19617;SDS011;9956;51.006;13.670;2023-02-28T04:38:10;11.55;;;8.68;;
19617;SDS011;9956;51.006;13.670;2023-02-28T04:43:10;13.88;;;10.02;;
19617;SDS011;9956;51.006;13.670;2023-02-28T04:48:11;13.55;;;9.77;;
19617;SDS011;9956;51.006;13.670;2023-02-28T04:53:11;14.98;;;11.27;;
19617;SDS011;9956;51.006;13.670;2023-02-28T04:58:12;15.50;;;10.50;;
19617;SDS011;9956;51.006;13.670;2023-02-28T05:03:13;16.45;;;12.43;;
19617;SDS011;9956;51.006;13.670;2023-02-28T05:08:14;15.85;;;11.40;;
19617;SDS011;9956;51.006;13.670;2023-02-28T05:13:14;14.30;;;11.27;;
19617;SDS011;9956;51.006;13.670;2023-02-28T05:18:14;18.00;;;11.88;;
19617;SDS011;9956;51.006;13.670;2023-02-28T05:23:15;16.90;;;11.93;;
19617;SDS011;9956;51.006;13.670;2023-02-28T05:28:18;21.48;;;12.45;;
19617;SDS011;9956;51.006;13.670;2023-02-28T05:33:19;19.33;;;12.65;;
19617;SDS011;9956;51.006;13.670;2023-02-28T05:38:19;21.50;;;12.68;;
19617;SDS011;9956;51.006;13.670;2023-02-28T05:43:20;19.60;;;12.98;;
19617;SDS011;9956;51.006;13.670;2023-02-28T05:48:20;21.48;;;14.02;;
19617;SDS011;9956;51.006;13.670;2023-02-28T05:53:21;20.88;;;12.55;;
19617;SDS011;9956;51.006;13.670;2023-02-28T05:58:21;22.55;;;12.85;;
19617;SDS011;9956;51.006;13.670;2023-02-28T06:03:22;19.17;;;12.65;;
19617;SDS011;9956;51.006;13.670;2023-02-28T06:08:22;19.85;;;12.80;;
19617;SDS011;9956;51.006;13.670;2023-02-28T06:13:23;19.10;;;12.55;;
19617;SDS011;9956;51.006;13.670;2023-02-28T06:18:24;17.38;;;12.82;;
19617;SDS011;9956;51.006;13.670;2023-02-28T06:23:24;19.20;;;13.35;;
19617;SDS011;9956;51.006;13.670;2023-02-28T06:28:25;19.65;;;13.10;;
19617;SDS011;9956;51.006;13.670;2023-02-28T06:33:26;17.65;;;13.63;;
19617;SDS011;9956;51.006;13.670;2023-02-28T06:38:26;22.02;;;13.70;;
19617;SDS011;9956;51.006;13.670;2023-02-28T06:43:30;18.70;;;13.52;;
19617;SDS011;9956;51.006;13.670;2023-02-28T06:48:33;17.75;;;12.82;;
19617;SDS011;9956;51.006;13.670;2023-02-28T06:53:34;18.88;;;12.50;;
19617;SDS011;9956;51.006;13.670;2023-02-28T06:58:35;19.48;;;13.05;;
19617;SDS011;9956;51.006;13.670;2023-02-28T07:03:36;14.73;;;11.35;;
19617;SDS011;9956;51.006;13.670;2023-02-28T07:08:36;15.45;;;11.02;;
19617;SDS011;9956;51.006;13.670;2023-02-28T07:13:37;13.43;;;10.52;;
19617;SDS011;9956;51.006;13.670;2023-02-28T07:18:38;16.60;;;10.93;;
19617;SDS011;9956;51.006;13.670;2023-02-28T07:23:38;17.08;;;14.15;;
19617;SDS011;9956;51.006;13.670;2023-02-28T07:28:39;17.02;;;12.25;;
19617;SDS011;9956;51.006;13.670;2023-02-28T07:33:40;18.70;;;13.60;;
19617;SDS011;9956;51.006;13.670;2023-02-28T07:38:42;21.83;;;15.48;;
19617;SDS011;9956;51.006;13.670;2023-02-28T07:43:43;18.80;;;12.48;;
19617;SDS011;9956;51.006;13.670;2023-02-28T07:48:44;13.18;;;11.48;;
19617;SDS011;9956;51.006;13.670;2023-02-28T07:53:45;14.50;;;11.07;;
19617;SDS011;9956;51.006;13.670;2023-02-28T07:58:45;14.65;;;11.80;;
19617;SDS011;9956;51.006;13.670;2023-02-28T08:03:46;12.38;;;11.07;;
19617;SDS011;9956;51.006;13.670;2023-02-28T08:08:46;12.45;;;9.85;;
19617;SDS011;9956;51.006;13.670;2023-02-28T08:13:48;12.25;;;10.95;;
19617;SDS011;9956;51.006;13.670;2023-02-28T08:18:49;12.73;;;10.70;;
19617;SDS011;9956;51.006;13.670;2023-02-28T08:23:51;10.57;;;8.98;;
19617;SDS011;9956;51.006;13.670;2023-02-28T08:28:51;12.55;;;10.45;;
19617;SDS011;9956;51.006;13.670;2023-02-28T08:33:52;8.77;;;7.53;;
19617;SDS011;9956;51.006;13.670;2023-02-28T08:38:53;11.68;;;8.32;;
19617;SDS011;9956;51.006;13.670;2023-02-28T08:43:53;10.63;;;7.38;;
19617;SDS011;9956;51.006;13.670;2023-02-28T08:48:54;8.38;;;7.30;;
19617;SDS011;9956;51.006;13.670;2023-02-28T08:53:57;11.70;;;8.23;;
19617;SDS011;9956;51.006;13.670;2023-02-28T08:59:00;12.10;;;7.72;;
19617;SDS011;9956;51.006;13.670;2023-02-28T09:04:00;11.93;;;8.90;;
19617;SDS011;9956;51.006;13.670;2023-02-28T09:09:02;9.43;;;7.85;;
19617;SDS011;9956;51.006;13.670;2023-02-28T09:14:06;8.23;;;7.35;;
19617;SDS011;9956;51.006;13.670;2023-02-28T09:19:06;11.13;;;7.82;;
19617;SDS011;9956;51.006;13.670;2023-02-28T09:24:07;9.07;;;7.45;;
19617;SDS011;9956;51.006;13.670;2023-02-28T09:29:07;8.90;;;7.50;;
19617;SDS011;9956;51.006;13.670;2023-02-28T09:34:08;9.70;;;7.38;;
19617;SDS011;9956;51.006;13.670;2023-02-28T09:39:09;8.82;;;6.95;;
19617;SDS011;9956;51.006;13.670;2023-02-28T09:44:10;9.68;;;7.70;;
19617;SDS011;9956;51.006;13.670;2023-02-28T09:49:19;9.70;;;6.75;;
19617;SDS011;9956;51.006;13.670;2023-02-28T09:54:24;8.45;;;5.88;;
19617;SDS011;9956;51.006;13.670;2023-02-28T09:59:53;8.23;;;6.60;;
19617;SDS011;9956;51.006;13.670;2023-02-28T10:05:18;8.85;;;7.50;;
19617;SDS011;9956;51.006;13.670;2023-02-28T10:15:33;9.02;;;7.03;;
19617;SDS011;9956;51.006;13.670;2023-02-28T10:20:35;8.35;;;7.07;;
19617;SDS011;9956;51.006;13.670;2023-02-28T10:25:38;8.10;;;6.57;;
19617;SDS011;9956;51.006;13.670;2023-02-28T10:30:43;7.50;;;6.80;;
19617;SDS011;9956;51.006;13.670;2023-02-28T10:35:45;8.40;;;7.35;;
19617;SDS011;9956;51.006;13.670;2023-02-28T10:40:46;10.02;;;7.57;;
19617;SDS011;9956;51.006;13.670;2023-02-28T10:45:55;10.90;;;7.80;;
19617;SDS011;9956;51.006;13.670;2023-02-28T10:51:10;8.45;;;7.65;;
19617;SDS011;9956;51.006;13.670;2023-02-28T11:01:14;9.23;;;7.50;;
19617;SDS011;9956;51.006;13.670;2023-02-28T11:06:19;8.77;;;7.13;;
19617;SDS011;9956;51.006;13.670;2023-02-28T11:11:22;9.85;;;8.23;;
19617;SDS011;9956;51.006;13.670;2023-02-28T11:16:32;8.18;;;6.75;;
19617;SDS011;9956;51.006;13.670;2023-02-28T11:21:36;10.55;;;7.53;;
19617;SDS011;9956;51.006;13.670;2023-02-28T11:26:42;10.52;;;8.00;;
19617;SDS011;9956;51.006;13.670;2023-02-28T11:37:13;11.05;;;8.75;;
19617;SDS011;9956;51.006;13.670;2023-02-28T11:42:23;9.75;;;7.93;;
19617;SDS011;9956;51.006;13.670;2023-02-28T11:47:42;9.05;;;7.57;;
19617;SDS011;9956;51.006;13.670;2023-02-28T12:35:26;8.85;;;7.95;;
19617;SDS011;9956;51.006;13.670;2023-02-28T12:40:47;8.63;;;7.72;;
19617;SDS011;9956;51.006;13.670;2023-02-28T12:45:58;9.75;;;7.95;;
19617;SDS011;9956;51.006;13.670;2023-02-28T12:51:01;8.90;;;7.68;;
19617;SDS011;9956;51.006;13.670;2023-02-28T13:07:19;8.38;;;7.45;;
19617;SDS011;9956;51.006;13.670;2023-02-28T13:12:18;7.95;;;7.00;;
19617;SDS011;9956;51.006;13.670;2023-02-28T13:17:21;8.77;;;7.88;;
19617;SDS011;9956;51.006;13.670;2023-02-28T13:27:32;11.18;;;8.75;;
19617;SDS011;9956;51.006;13.670;2023-02-28T13:32:40;10.82;;;8.98;;
19617;SDS011;9956;51.006;13.670;2023-02-28T13:37:44;8.73;;;7.72;;
19617;SDS011;9956;51.006;13.670;2023-02-28T13:42:46;9.38;;;7.65;;
19617;SDS011;9956;51.006;13.670;2023-02-28T13:47:58;7.90;;;6.95;;
19617;SDS011;9956;51.006;13.670;2023-02-28T14:08:45;11.18;;;10.00;;
19617;SDS011;9956;51.006;13.670;2023-02-28T14:13:53;11.40;;;10.07;;
19617;SDS011;9956;51.006;13.670;2023-02-28T14:24:29;11.43;;;9.90;;
19617;SDS011;9956;51.006;13.670;2023-02-28T14:34:54;12.55;;;10.38;;
19617;SDS011;9956;51.006;13.670;2023-02-28T14:40:20;14.13;;;10.95;;
19617;SDS011;9956;51.006;13.670;2023-02-28T14:45:24;13.00;;;10.90;;
19617;SDS011;9956;51.006;13.670;2023-02-28T14:50:29;11.25;;;10.10;;
19617;SDS011;9956;51.006;13.670;2023-02-28T14:55:32;11.35;;;10.05;;
19617;SDS011;9956;51.006;13.670;2023-02-28T15:00:35;11.82;;;10.52;;
19617;SDS011;9956;51.006;13.670;2023-02-28T15:05:40;10.65;;;9.52;;
19617;SDS011;9956;51.006;13.670;2023-02-28T15:10:42;12.15;;;10.20;;
19617;SDS011;9956;51.006;13.670;2023-02-28T15:16:03;11.77;;;10.55;;
19617;SDS011;9956;51.006;13.670;2023-02-28T15:21:06;11.23;;;9.48;;
19617;SDS011;9956;51.006;13.670;2023-02-28T15:26:10;15.55;;;11.27;;
19617;SDS011;9956;51.006;13.670;2023-02-28T15:31:23;13.27;;;10.15;;
19617;SDS011;9956;51.006;13.670;2023-02-28T15:36:29;13.35;;;11.52;;
19617;SDS011;9956;51.006;13.670;2023-02-28T15:41:38;11.90;;;9.93;;
19617;SDS011;9956;51.006;13.670;2023-02-28T15:46:39;11.88;;;10.52;;
19617;SDS011;9956;51.006;13.670;2023-02-28T15:51:53;12.50;;;10.40;;
19617;SDS011;9956;51.006;13.670;2023-02-28T15:57:03;12.88;;;11.32;;
19617;SDS011;9956;51.006;13.670;2023-02-28T16:07:13;13.43;;;12.00;;
19617;SDS011;9956;51.006;13.670;2023-02-28T16:12:14;13.52;;;12.07;;
19617;SDS011;9956;51.006;13.670;2023-02-28T16:17:19;15.80;;;11.93;;
19617;SDS011;9956;51.006;13.670;2023-02-28T16:22:21;16.60;;;11.60;;
19617;SDS011;9956;51.006;13.670;2023-02-28T16:27:27;15.63;;;12.70;;
19617;SDS011;9956;51.006;13.670;2023-02-28T16:32:31;19.85;;;14.15;;
19617;SDS011;9956;51.006;13.670;2023-02-28T16:37:32;14.98;;;12.00;;
19617;SDS011;9956;51.006;13.670;2023-02-28T16:42:32;15.60;;;12.98;;
19617;SDS011;9956;51.006;13.670;2023-02-28T16:47:33;15.63;;;12.80;;
19617;SDS011;9956;51.006;13.670;2023-02-28T16:52:33;16.67;;;12.90;;
19617;SDS011;9956;51.006;13.670;2023-02-28T16:57:34;17.30;;;13.07;;
19617;SDS011;9956;51.006;13.670;2023-02-28T17:02:34;17.58;;;12.93;;
19617;SDS011;9956;51.006;13.670;2023-02-28T17:07:35;19.17;;;12.85;;
19617;SDS011;9956;51.006;13.670;2023-02-28T17:12:35;18.17;;;13.13;;
19617;SDS011;9956;51.006;13.670;2023-02-28T17:17:36;18.65;;;13.57;;
19617;SDS011;9956;51.006;13.670;2023-02-28T17:22:37;18.88;;;15.15;;
19617;SDS011;9956;51.006;13.670;2023-02-28T17:27:37;22.27;;;16.27;;
19617;SDS011;9956;51.006;13.670;2023-02-28T17:32:38;23.23;;;16.70;;
19617;SDS011;9956;51.006;13.670;2023-02-28T17:37:39;23.65;;;16.80;;
19617;SDS011;9956;51.006;13.670;2023-02-28T17:42:39;24.70;;;17.52;;
19617;SDS011;9956;51.006;13.670;2023-02-28T17:47:40;24.50;;;17.98;;
19617;SDS011;9956;51.006;13.670;2023-02-28T17:52:42;23.80;;;17.58;;
19617;SDS011;9956;51.006;13.670;2023-02-28T17:57:42;26.77;;;19.75;;
19617;SDS011;9956;51.006;13.670;2023-02-28T18:02:43;27.17;;;19.13;;
19617;SDS011;9956;51.006;13.670;2023-02-28T18:07:44;27.75;;;20.05;;
19617;SDS011;9956;51.006;13.670;2023-02-28T18:12:45;25.98;;;18.60;;
19617;SDS011;9956;51.006;13.670;2023-02-28T18:17:48;29.58;;;20.52;;
19617;SDS011;9956;51.006;13.670;2023-02-28T18:22:49;33.97;;;21.80;;
19617;SDS011;9956;51.006;13.670;2023-02-28T18:27:49;30.30;;;21.17;;
19617;SDS011;9956;51.006;13.670;2023-02-28T18:32:59;29.88;;;21.40;;
19617;SDS011;9956;51.006;13.670;2023-02-28T18:38:07;32.63;;;23.70;;
19617;SDS011;9956;51.006;13.670;2023-02-28T18:43:09;32.33;;;23.65;;
19617;SDS011;9956;51.006;13.670;2023-02-28T18:48:10;31.38;;;23.98;;
19617;SDS011;9956;51.006;13.670;2023-02-28T18:53:12;33.53;;;24.67;;
19617;SDS011;9956;51.006;13.670;2023-02-28T18:58:12;29.77;;;23.65;;
19617;SDS011;9956;51.006;13.670;2023-02-28T19:03:13;37.60;;;24.80;;
19617;SDS011;9956;51.006;13.670;2023-02-28T19:08:14;39.47;;;26.50;;
19617;SDS011;9956;51.006;13.670;2023-02-28T19:13:14;39.15;;;25.15;;
19617;SDS011;9956;51.006;13.670;2023-02-28T19:18:15;32.60;;;24.40;;
19617;SDS011;9956;51.006;13.670;2023-02-28T19:23:15;38.45;;;26.35;;
19617;SDS011;9956;51.006;13.670;2023-02-28T19:28:16;74.07;;;35.65;;
19617;SDS011;9956;51.006;13.670;2023-02-28T19:33:17;156.50;;;55.08;;
19617;SDS011;9956;51.006;13.670;2023-02-28T19:38:19;97.32;;;39.33;;
19617;SDS011;9956;51.006;13.670;2023-02-28T19:43:19;58.42;;;31.33;;
19617;SDS011;9956;51.006;13.670;2023-02-28T19:48:24;49.95;;;30.00;;
19617;SDS011;9956;51.006;13.670;2023-02-28T19:53:28;48.33;;;30.05;;
19617;SDS011;9956;51.006;13.670;2023-02-28T19:58:29;51.13;;;30.10;;
19617;SDS011;9956;51.006;13.670;2023-02-28T20:03:30;40.25;;;28.20;;
19617;SDS011;9956;51.006;13.670;2023-02-28T20:08:31;129.60;;;53.53;;
19617;SDS011;9956;51.006;13.670;2023-02-28T20:13:31;62.72;;;34.00;;
19617;SDS011;9956;51.006;13.670;2023-02-28T20:18:32;47.25;;;29.88;;
19617;SDS011;9956;51.006;13.670;2023-02-28T20:23:33;52.25;;;33.28;;
19617;SDS011;9956;51.006;13.670;2023-02-28T20:28:33;48.33;;;31.20;;
19617;SDS011;9956;51.006;13.670;2023-02-28T20:33:34;43.53;;;30.15;;
19617;SDS011;9956;51.006;13.670;2023-02-28T20:38:34;49.63;;;32.78;;
19617;SDS011;9956;51.006;13.670;2023-02-28T20:43:35;50.03;;;33.60;;
19617;SDS011;9956;51.006;13.670;2023-02-28T20:48:36;46.35;;;31.83;;
19617;SDS011;9956;51.006;13.670;2023-02-28T20:53:37;42.55;;;29.58;;
19617;SDS011;9956;51.006;13.670;2023-02-28T20:58:38;43.03;;;28.63;;
19617;SDS011;9956;51.006;13.670;2023-02-28T21:03:38;47.28;;;30.42;;
19617;SDS011;9956;51.006;13.670;2023-02-28T21:08:39;42.35;;;29.60;;
19617;SDS011;9956;51.006;13.670;2023-02-28T21:13:41;42.80;;;28.88;;
19617;SDS011;9956;51.006;13.670;2023-02-28T21:18:42;44.30;;;29.20;;
19617;SDS011;9956;51.006;13.670;2023-02-28T21:23:43;44.28;;;30.48;;
19617;SDS011;9956;51.006;13.670;2023-02-28T21:28:50;39.30;;;28.40;;
19617;SDS011;9956;51.006;13.670;2023-02-28T21:33:52;44.70;;;29.50;;
19617;SDS011;9956;51.006;13.670;2023-02-28T21:38:54;42.08;;;29.38;;
19617;SDS011;9956;51.006;13.670;2023-02-28T21:43:56;42.92;;;29.58;;
19617;SDS011;9956;51.006;13.670;2023-02-28T21:48:56;49.08;;;31.55;;
19617;SDS011;9956;51.006;13.670;2023-02-28T21:53:57;43.60;;;28.50;;
19617;SDS011;9956;51.006;13.670;2023-02-28T21:58:59;42.88;;;29.65;;
19617;SDS011;9956;51.006;13.670;2023-02-28T22:04:01;45.60;;;30.65;;
19617;SDS011;9956;51.006;13.670;2023-02-28T22:09:03;43.22;;;30.33;;
19617;SDS011;9956;51.006;13.670;2023-02-28T22:14:07;41.63;;;28.23;;
19617;SDS011;9956;51.006;13.670;2023-02-28T22:19:08;42.28;;;28.73;;
19617;SDS011;9956;51.006;13.670;2023-02-28T22:24:09;41.17;;;27.30;;
19617;SDS011;9956;51.006;13.670;2023-02-28T22:29:10;44.45;;;28.17;;
19617;SDS011;9956;51.006;13.670;2023-02-28T22:34:11;36.95;;;25.52;;
19617;SDS011;9956;51.006;13.670;2023-02-28T22:39:12;36.58;;;24.40;;
19617;SDS011;9956;51.006;13.670;2023-02-28T22:44:12;39.15;;;25.45;;
19617;SDS011;9956;51.006;13.670;2023-02-28T22:49:13;43.78;;;29.55;;
19617;SDS011;9956;51.006;13.670;2023-02-28T22:54:13;42.20;;;28.17;;
19617;SDS011;9956;51.006;13.670;2023-02-28T22:59:14;39.92;;;27.52;;
19617;SDS011;9956;51.006;13.670;2023-02-28T23:04:14;40.42;;;25.60;;
19617;SDS011;9956;51.006;13.670;2023-02-28T23:09:15;36.15;;;23.73;;
19617;SDS011;9956;51.006;13.670;2023-02-28T23:14:17;43.13;;;26.33;;
19617;SDS011;9956;51.006;13.670;2023-02-28T23:19:20;40.92;;;25.48;;
19617;SDS011;9956;51.006;13.670;2023-02-28T23:24:31;41.13;;;26.30;;
19617;SDS011;9956;51.006;13.670;2023-02-28T23:29:32;38.05;;;25.48;;
19617;SDS011;9956;51.006;13.670;2023-02-28T23:34:33;44.33;;;28.25;;
19617;SDS011;9956;51.006;13.670;2023-02-28T23:39:34;44.63;;;27.90;;
19617;SDS011;9956;51.006;13.670;2023-02-28T23:44:34;43.40;;;29.48;;
19617;SDS011;9956;51.006;13.670;2023-02-28T23:49:35;44.03;;;28.42;;
19617;SDS011;9956;51.006;13.670;2023-02-28T23:54:35;35.97;;;25.08;;
19617;SDS011;9956;51.006;13.670;2023-02-28T23:59:36;38.40;;;23.42;;
